This is the latest recevied weather packets stored in our database for station/object IU3OVK-13. If no packets are shown the sender has not sent any weather packets the latest 10 day(s).
| Time | Temp. | Humidity | Pressure | Rain* | Wind** | Luminosity | Snow |
|---|---|---|---|---|---|---|---|
| 1778006081 | 12.78° C | 99% | 1006.1 hPa | - | - | - | - |
| 1778004841 | 13.33° C | 99% | 1005.9 hPa | - | - | - | - |
| 1778003600 | 13.33° C | 99% | 1006.1 hPa | - | - | - | - |
| 1778002360 | 12.78° C | 99% | 1006.1 hPa | - | - | - | - |
| 1778001740 | 12.78° C | 99% | 1006.2 hPa | - | - | - | - |
| 1778001120 | 12.78° C | 99% | 1006.3 hPa | - | - | - | - |
| 1778000501 | 13.89° C | 99% | 1006.4 hPa | - | - | - | - |
| 1777999259 | 14.44° C | 99% | 1006.7 hPa | - | - | - | - |
| 1777997399 | 14.44° C | 99% | 1006.9 hPa | - | - | - | - |
| 1777996158 | 15° C | 99% | 1006.8 hPa | - | - | - | - |
| 1777995538 | 15° C | 99% | 1006.8 hPa | - | - | - | - |
| 1777994918 | 15° C | 99% | 1006.9 hPa | - | - | - | - |
| 1777994298 | 14.44° C | 99% | 1007.1 hPa | - | - | - | - |
| 1777993678 | 15° C | 99% | 1006.9 hPa | - | - | - | - |
| 1777991197 | 15° C | 99% | 1007 hPa | - | - | - | - |
| 1777989957 | 13.89° C | 99% | 1007.4 hPa | - | - | - | - |
| 1777988717 | 15° C | 99% | 1007.4 hPa | - | - | - | - |
| 1777988096 | 15° C | 99% | 1007.4 hPa | - | - | - | - |
| 1777986236 | 15° C | 99% | 1007.5 hPa | - | - | - | - |
| 1777984997 | 15° C | 99% | 1007.7 hPa | - | - | - | - |
| 1777983135 | 16.11° C | 99% | 1008.2 hPa | - | - | - | - |
| 1777982515 | 17.22° C | 99% | 1008.1 hPa | - | - | - | - |
| 1777981895 | 17.22° C | 99% | 1008.4 hPa | - | - | - | - |
| 1777981275 | 18.89° C | 99% | 1007.3 hPa | - | - | - | - |
| 1777978794 | 18.89° C | 99% | 1007.3 hPa | - | - | - | - |
* Rain since midnight (hover to see other rain measurements)
** Current wind speed in m/s (hover to see current wind gust speed)